Paisaje, Colorado
Current Conditions -  °F | °C
As of 7:52 AM on Thursday 23 Oct 2014 (Local Time) from KALS Reporting Station
Clear Clear  
Wind Chill: 24°   Ceiling: Unl
Heat Index: 29°   Visibility: 10mi
Dew Point: 26°   Wind: 5mph
Humidity: 89%   Direction: 210°SSW
Pressure: 30.35"   Gusts: NA
Location:  37.1816°N, 106.262°W
Report Text: KALS 231352Z AUTO 21004KT 10SM CLR M02/M03 A3035 RMK AO2 SLP257 T10171033
Loading
Personal Weather Stations






























Interactive Weather Map
Tropical Storm Tracking
New forecast layout! Learn more

10-Day Weather Forecast

Advertisements
Track Severe Weather on mobile